Time;durP1;ratioP1;P1;durP2;ratioP2;P2;SDS_P1;SDS_P2;PMS_P1;PMS_P2;Temp;Humidity;BMP_temperature;BMP_pressure;BME280_temperature;BME280_humidity;BME280_pressure;Samples;Min_cycle;Max_cycle;Signal;HPM_P1;HPM_P2
2023/08/16 00:00:03;;;;;;;12.20;7.75;;;15.50;1.00;;;;;;5094601;28;20028;-59
2023/08/16 00:02:29;;;;;;;15.90;9.35;;;15.40;1.00;;;;;;5095961;28;20051;-59
2023/08/16 00:04:54;;;;;;;14.23;8.18;;;15.20;1.00;;;;;;5093060;28;20036;-59
2023/08/16 00:07:20;;;;;;;14.20;8.68;;;15.10;1.00;;;;;;5098451;28;20032;-59
2023/08/16 00:09:45;;;;;;;16.05;9.43;;;15.30;1.00;;;;;;5097370;28;20048;-59
2023/08/16 00:12:11;;;;;;;11.75;8.52;;;15.50;1.00;;;;;;5088742;28;20030;-59
2023/08/16 00:14:37;;;;;;;16.73;9.95;;;;;;;;;;5098995;28;20513;-59
2023/08/16 00:17:03;;;;;;;14.02;9.75;;;15.50;3.00;;;;;;5090075;28;20044;-59
2023/08/16 00:19:29;;;;;;;14.75;11.30;;;16.00;1.00;;;;;;5091304;28;20043;-59
2023/08/16 00:21:55;;;;;;;15.88;11.00;;;15.30;24.00;;;;;;5091393;28;20043;-59
2023/08/16 00:24:20;;;;;;;13.60;10.07;;;15.60;57.80;;;;;;5091240;28;20394;-59
2023/08/16 00:26:46;;;;;;;13.05;10.20;;;;;;;;;;5087784;28;20067;-59
2023/08/16 00:29:12;;;;;;;10.18;6.10;;;15.50;56.50;;;;;;5091193;28;20032;-59
2023/08/16 00:31:38;;;;;;;8.13;5.38;;;;;;;;;;5089188;28;20047;-59
2023/08/16 00:34:03;;;;;;;7.07;4.55;;;15.30;1.00;;;;;;5089137;28;20485;-59
2023/08/16 00:36:29;;;;;;;7.63;3.78;;;15.10;1.00;;;;;;5091223;28;20093;-59
2023/08/16 00:38:55;;;;;;;7.03;4.57;;;;;;;;;;5090062;28;20036;-59
2023/08/16 00:41:21;;;;;;;6.90;3.90;;;;;;;;;;5089920;28;20047;-59
2023/08/16 00:43:47;;;;;;;9.23;4.22;;;14.70;1.00;;;;;;5095401;28;20072;-59
2023/08/16 00:46:14;;;;;;;9.98;5.18;;;;;;;;;;5094074;28;20074;-59
2023/08/16 00:48:42;;;;;;;8.43;4.47;;;14.90;16.10;;;;;;5091626;28;20126;-59
2023/08/16 00:51:09;;;;;;;8.70;4.75;;;14.80;58.90;;;;;;5090235;28;20063;-59
2023/08/16 00:53:36;;;;;;;7.68;4.82;;;14.70;28.00;;;;;;5095028;28;20036;-59
2023/08/16 00:56:03;;;;;;;8.38;5.18;;;14.90;46.60;;;;;;5089151;28;20036;-59
2023/08/16 00:58:30;;;;;;;9.15;5.05;;;;;;;;;;5085946;28;20040;-59
2023/08/16 01:00:56;;;;;;;12.93;6.28;;;;;;;;;;5089198;28;20044;-59
2023/08/16 01:03:22;;;;;;;14.43;8.77;;;;;;;;;;5090783;28;20032;-59
2023/08/16 01:05:48;;;;;;;13.05;8.25;;;14.80;64.70;;;;;;5094614;28;20515;-59
2023/08/16 01:08:14;;;;;;;12.15;6.75;;;14.90;62.70;;;;;;5092078;28;20028;-59
2023/08/16 01:10:51;;;;;;;7.55;4.72;;;;;;;;;;5088419;28;20131;-59
2023/08/16 01:13:25;;;;;;;5.93;3.22;;;14.90;31.20;;;;;;5089770;28;20081;-59
2023/08/16 01:15:52;;;;;;;5.88;2.90;;;;;;;;;;5090073;28;20043;-59
2023/08/16 01:18:20;;;;;;;6.35;3.10;;;;;;;;;;5099993;28;20044;-59
2023/08/16 01:20:48;;;;;;;7.15;3.83;;;14.30;11.00;;;;;;5089689;28;20039;-59
2023/08/16 01:23:19;;;;;;;8.00;4.10;;;;;;;;;;5088437;28;20063;-59
2023/08/16 01:25:50;;;;;;;5.80;3.20;;;;;;;;;;5089825;28;20105;-59
2023/08/16 01:28:18;;;;;;;6.80;3.53;;;14.10;7.50;;;;;;5081952;28;20036;-59
2023/08/16 01:30:45;;;;;;;6.18;3.60;;;;;;;;;;5089703;28;20062;-58
2023/08/16 01:33:12;;;;;;;6.85;4.05;;;;;;;;;;5091107;28;20120;-59
2023/08/16 01:35:38;;;;;;;6.00;3.13;;;;;;;;;;5091843;28;20039;-59
2023/08/16 01:38:05;;;;;;;9.15;3.80;;;;;;;;;;5089213;28;20459;-59
2023/08/16 01:40:35;;;;;;;6.43;3.85;;;;;;;;;;5089014;28;20481;-59
2023/08/16 01:43:02;;;;;;;6.40;3.55;;;14.40;26.80;;;;;;5086013;28;20509;-59
2023/08/16 01:45:29;;;;;;;6.22;3.50;;;;;;;;;;5089215;28;20066;-59
2023/08/16 01:47:56;;;;;;;8.10;4.22;;;13.80;44.50;;;;;;5088982;28;20039;-59
2023/08/16 01:50:23;;;;;;;7.47;3.90;;;;;;;;;;5122877;22;20115;-59
2023/08/16 01:52:49;;;;;;;6.07;3.10;;;13.10;68.00;;;;;;5064777;28;20048;-57
2023/08/16 01:55:15;;;;;;;4.90;2.70;;;;;;;;;;5069391;28;20494;-58
2023/08/16 01:57:41;;;;;;;5.18;2.80;;;13.60;76.30;;;;;;5066980;28;20046;-57
2023/08/16 02:00:09;;;;;;;5.32;2.97;;;13.80;85.60;;;;;;5067235;28;20477;-58
2023/08/16 02:02:36;;;;;;;7.70;3.30;;;13.60;68.60;;;;;;5063375;28;20029;-58
2023/08/16 02:05:02;;;;;;;5.00;2.90;;;14.20;79.70;;;;;;5066637;28;20085;-58
2023/08/16 02:07:28;;;;;;;5.72;3.10;;;;;;;;;;5062786;28;20036;-58
2023/08/16 02:09:54;;;;;;;6.18;3.33;;;;;;;;;;5055144;28;20028;-58
2023/08/16 02:12:20;;;;;;;6.03;3.63;;;;;;;;;;5068748;28;20051;-58
2023/08/16 02:14:46;;;;;;;6.53;4.18;;;;;;;;;;5083132;28;20102;-57
2023/08/16 02:17:12;;;;;;;8.82;4.53;;;13.70;66.10;;;;;;5062609;28;20036;-58
2023/08/16 02:19:37;;;;;;;7.03;4.40;;;13.20;87.90;;;;;;5075415;28;20028;-58
2023/08/16 02:22:03;;;;;;;6.78;3.88;;;;;;;;;;5066536;28;20040;-58
2023/08/16 02:24:29;;;;;;;6.47;4.22;;;13.70;99.90;;;;;;5068077;28;20032;-58
2023/08/16 02:26:55;;;;;;;6.15;3.88;;;14.00;96.70;;;;;;5070040;28;20390;-58
2023/08/16 02:29:21;;;;;;;8.73;4.10;;;;;;;;;;5067609;28;20333;-58
2023/08/16 02:31:46;;;;;;;9.77;5.88;;;14.10;82.30;;;;;;5060852;28;20140;-58
2023/08/16 02:34:12;;;;;;;7.82;4.63;;;14.20;96.80;;;;;;5072971;28;20127;-58
2023/08/16 02:36:38;;;;;;;6.47;3.97;;;14.10;93.20;;;;;;5066946;28;20025;-58
2023/08/16 02:39:05;;;;;;;9.43;5.80;;;13.70;92.90;;;;;;5061027;28;20041;-58
2023/08/16 02:41:31;;;;;;;8.60;5.20;;;13.20;99.90;;;;;;5063832;28;20045;-58
2023/08/16 02:43:57;;;;;;;9.10;4.70;;;14.50;99.90;;;;;;5065703;28;20044;-58
2023/08/16 02:46:23;;;;;;;8.57;5.20;;;13.80;99.90;;;;;;5063550;28;20093;-58
2023/08/16 02:48:48;;;;;;;7.18;4.97;;;13.80;99.90;;;;;;5066311;28;20089;-57
2023/08/16 02:51:14;;;;;;;6.25;3.40;;;13.80;99.90;;;;;;5064139;28;20036;-57
2023/08/16 02:53:40;;;;;;;6.53;3.08;;;13.70;99.90;;;;;;5062237;28;20097;-58
2023/08/16 02:56:05;;;;;;;6.18;3.53;;;13.20;99.90;;;;;;5059173;28;20072;-58
2023/08/16 02:58:31;;;;;;;6.88;4.05;;;13.10;95.40;;;;;;5068918;28;20029;-57
2023/08/16 03:00:56;;;;;;;6.97;3.60;;;13.10;99.90;;;;;;5059967;28;20075;-58
2023/08/16 03:03:22;;;;;;;7.35;3.70;;;13.60;96.70;;;;;;5060852;28;20059;-57
2023/08/16 03:05:48;;;;;;;6.93;3.10;;;13.10;93.60;;;;;;5067734;28;20036;-58
2023/08/16 03:08:14;;;;;;;5.78;3.10;;;13.60;99.90;;;;;;5096524;28;20032;-58
2023/08/16 03:10:39;;;;;;;5.63;2.55;;;12.90;99.90;;;;;;5069205;28;20036;-57
2023/08/16 03:13:05;;;;;;;6.00;3.38;;;;;;;;;;5069343;28;20068;-58
2023/08/16 03:15:31;;;;;;;6.43;2.92;;;13.90;81.00;;;;;;5065058;28;20052;-57
2023/08/16 03:17:57;;;;;;;6.35;3.30;;;12.80;99.00;;;;;;5063522;28;20055;-57
2023/08/16 03:20:22;;;;;;;6.80;3.40;;;13.60;99.90;;;;;;5071382;28;20037;-58
2023/08/16 03:22:48;;;;;;;5.80;3.30;;;13.40;99.90;;;;;;5065579;28;20115;-57
2023/08/16 03:25:14;;;;;;;6.20;3.38;;;;;;;;;;5064167;28;20044;-58
2023/08/16 03:27:40;;;;;;;6.22;3.38;;;13.40;99.90;;;;;;5069754;28;20406;-57
2023/08/16 03:30:06;;;;;;;6.32;3.70;;;;;;;;;;5062532;28;20066;-57
2023/08/16 03:32:31;;;;;;;7.78;4.10;;;13.40;99.90;;;;;;5068807;28;20482;-57
2023/08/16 03:34:57;;;;;;;6.82;3.92;;;13.30;94.30;;;;;;5071205;28;20035;-58
2023/08/16 03:37:23;;;;;;;8.80;4.78;;;;;;;;;;5063277;28;20643;-58
2023/08/16 03:39:49;;;;;;;8.00;4.30;;;13.40;99.90;;;;;;5069746;28;20041;-57
2023/08/16 03:42:15;;;;;;;9.63;6.13;;;13.90;98.60;;;;;;5090460;28;20473;-57
2023/08/16 03:44:41;;;;;;;8.88;5.72;;;13.00;99.90;;;;;;5063088;28;20119;-58
2023/08/16 03:47:06;;;;;;;9.25;5.35;;;13.20;99.90;;;;;;5068160;28;20066;-57
2023/08/16 03:49:32;;;;;;;8.80;5.72;;;13.10;99.90;;;;;;5069672;28;20058;-57
2023/08/16 03:51:57;;;;;;;9.20;5.78;;;13.80;99.90;;;;;;5071361;28;20401;-57
2023/08/16 03:54:23;;;;;;;10.20;5.78;;;13.40;95.90;;;;;;5072150;28;20036;-58
2023/08/16 03:56:49;;;;;;;8.32;5.28;;;13.30;84.70;;;;;;5066864;28;20046;-57
2023/08/16 03:59:14;;;;;;;9.93;5.28;;;13.40;90.50;;;;;;5069724;28;20080;-58
2023/08/16 04:01:40;;;;;;;8.82;5.13;;;13.20;80.70;;;;;;5071492;28;20033;-58
2023/08/16 04:04:06;;;;;;;7.05;4.20;;;;;;;;;;5072085;28;20560;-58
2023/08/16 04:06:32;;;;;;;5.07;2.65;;;13.50;99.90;;;;;;5093415;28;20063;-57
2023/08/16 04:08:57;;;;;;;5.05;2.58;;;13.50;92.80;;;;;;5070958;28;20473;-58
2023/08/16 04:11:23;;;;;;;4.43;2.20;;;13.40;94.10;;;;;;5069182;28;20124;-57
2023/08/16 04:13:49;;;;;;;5.30;2.22;;;;;;;;;;5071940;28;20036;-58
2023/08/16 04:16:14;;;;;;;4.70;2.30;;;13.40;92.20;;;;;;5078988;28;20036;-59
2023/08/16 04:18:40;;;;;;;5.35;2.58;;;13.20;90.20;;;;;;5073566;28;20444;-59
2023/08/16 04:21:06;;;;;;;5.32;2.90;;;;;;;;;;5065186;28;20120;-59
2023/08/16 04:23:32;;;;;;;6.30;2.75;;;13.10;87.00;;;;;;5071419;28;21770;-58
2023/08/16 04:25:57;;;;;;;4.68;2.70;;;13.00;70.10;;;;;;5069747;28;20123;-59
2023/08/16 04:28:23;;;;;;;6.10;3.20;;;;;;;;;;5057639;28;20036;-59
2023/08/16 04:30:49;;;;;;;7.15;3.08;;;12.60;70.30;;;;;;5070209;28;20037;-58
2023/08/16 04:33:15;;;;;;;5.55;2.80;;;13.50;66.90;;;;;;5070587;28;20060;-59
2023/08/16 04:35:40;;;;;;;6.90;2.95;;;12.80;80.40;;;;;;5065669;28;20111;-59
2023/08/16 04:38:06;;;;;;;6.78;3.00;;;13.00;97.70;;;;;;5068198;28;20115;-58
2023/08/16 04:40:32;;;;;;;6.95;2.90;;;12.80;99.90;;;;;;5066596;28;20040;-59
2023/08/16 04:42:57;;;;;;;6.05;3.58;;;12.90;99.90;;;;;;5055738;28;20066;-58
2023/08/16 04:45:23;;;;;;;7.32;3.80;;;12.40;99.90;;;;;;5058845;28;20512;-58
2023/08/16 04:47:49;;;;;;;5.68;3.03;;;12.70;99.90;;;;;;5067150;28;20044;-59
2023/08/16 04:50:15;;;;;;;6.65;3.55;;;12.70;99.90;;;;;;5066392;28;20055;-59
2023/08/16 04:52:40;;;;;;;5.80;3.30;;;12.90;99.90;;;;;;5068105;28;20048;-59
2023/08/16 04:55:07;;;;;;;5.88;2.88;;;13.30;99.90;;;;;;5069434;28;20043;-59
2023/08/16 04:57:33;;;;;;;5.68;2.92;;;12.60;99.90;;;;;;5060929;28;20485;-59
2023/08/16 04:59:58;;;;;;;4.82;2.45;;;13.00;99.90;;;;;;5064133;28;20039;-57
2023/08/16 05:02:24;;;;;;;4.82;2.38;;;12.80;99.90;;;;;;5058580;28;20086;-58
2023/08/16 05:04:50;;;;;;;4.80;2.30;;;13.10;99.90;;;;;;5063434;28;20382;-57
2023/08/16 05:07:15;;;;;;;5.03;2.50;;;13.20;99.90;;;;;;5070058;28;20041;-59
2023/08/16 05:09:41;;;;;;;6.70;2.38;;;12.70;99.90;;;;;;5066170;28;20117;-58
2023/08/16 05:12:07;;;;;;;4.45;2.30;;;13.10;99.90;;;;;;5066382;28;20174;-58
2023/08/16 05:14:32;;;;;;;4.85;2.50;;;13.10;99.90;;;;;;5064788;28;20090;-58
2023/08/16 05:16:58;;;;;;;5.28;2.67;;;13.30;99.90;;;;;;5057529;28;20086;-59
2023/08/16 05:19:24;;;;;;;5.90;2.80;;;13.20;99.90;;;;;;5061351;28;20470;-59
2023/08/16 05:21:49;;;;;;;5.60;2.55;;;13.20;99.90;;;;;;5062539;28;20036;-60
2023/08/16 05:24:15;;;;;;;6.45;3.10;;;13.20;99.90;;;;;;5062626;28;20052;-59
2023/08/16 05:26:41;;;;;;;5.47;2.70;;;13.10;99.90;;;;;;5061052;28;20454;-59
2023/08/16 05:29:06;;;;;;;6.25;3.20;;;13.30;96.70;;;;;;5059857;28;20428;-60
2023/08/16 05:31:32;;;;;;;5.47;3.05;;;13.40;92.30;;;;;;5066579;28;20090;-59
2023/08/16 05:33:57;;;;;;;5.70;2.70;;;13.40;94.10;;;;;;5063186;28;20032;-59
2023/08/16 05:36:27;;;;;;;7.32;3.70;;;;;;;;;;5068770;28;20036;-60
2023/08/16 05:38:53;;;;;;;6.45;3.28;;;13.40;89.00;;;;;;5069402;28;20044;-60
2023/08/16 05:41:19;;;;;;;9.10;3.97;;;13.50;89.60;;;;;;5066331;28;20040;-60
2023/08/16 05:43:44;;;;;;;6.70;4.35;;;12.90;92.20;;;;;;5062205;28;20037;-59
2023/08/16 05:46:10;;;;;;;6.68;4.13;;;14.30;93.10;;;;;;5064114;28;20082;-60
2023/08/16 05:48:36;;;;;;;6.75;4.28;;;13.60;78.40;;;;;;5062232;28;20127;-60
2023/08/16 05:51:01;;;;;;;8.50;4.38;;;13.70;90.10;;;;;;5061164;28;20044;-60
2023/08/16 05:53:27;;;;;;;5.90;3.40;;;14.00;99.90;;;;;;5054118;28;20414;-60
2023/08/16 05:55:52;;;;;;;5.50;3.38;;;14.30;99.90;;;;;;5065422;28;20029;-59
2023/08/16 05:58:18;;;;;;;6.25;3.65;;;12.60;99.90;;;;;;5063093;28;20120;-60
2023/08/16 06:00:45;;;;;;;5.00;2.60;;;14.00;99.70;;;;;;5066556;28;20506;-60
2023/08/16 06:03:14;;;;;;;5.40;3.20;;;13.90;92.10;;;;;;5064075;28;20048;-60
2023/08/16 06:05:40;;;;;;;5.15;2.55;;;14.30;76.70;;;;;;5063435;28;20060;-60
2023/08/16 06:08:08;;;;;;;5.70;3.10;;;14.30;74.90;;;;;;5057777;28;20032;-59
2023/08/16 06:10:34;;;;;;;5.00;2.90;;;14.10;77.50;;;;;;5068572;28;20047;-59
2023/08/16 06:12:59;;;;;;;5.40;3.20;;;14.20;70.00;;;;;;5060849;28;20036;-60
2023/08/16 06:15:25;;;;;;;6.10;3.33;;;;;;;;;;5062228;28;20040;-60
2023/08/16 06:17:51;;;;;;;5.80;3.80;;;14.70;90.40;;;;;;5062072;28;20040;-60
2023/08/16 06:20:16;;;;;;;5.55;3.38;;;14.30;99.90;;;;;;5050907;28;20048;-59
2023/08/16 06:22:42;;;;;;;5.53;3.10;;;14.40;96.10;;;;;;5044219;28;20049;-58
2023/08/16 06:25:09;;;;;;;6.53;3.90;;;14.40;99.90;;;;;;5060751;28;20044;-60
2023/08/16 06:27:34;;;;;;;9.68;4.95;;;14.60;99.90;;;;;;5058725;28;20033;-60
2023/08/16 06:30:01;;;;;;;8.60;4.93;;;14.90;99.90;;;;;;5057678;28;20098;-60
2023/08/16 06:32:27;;;;;;;11.60;5.32;;;14.70;99.90;;;;;;5068591;28;20052;-59
2023/08/16 06:34:52;;;;;;;9.27;4.97;;;14.70;99.90;;;;;;5062019;28;20029;-61
2023/08/16 06:37:18;;;;;;;8.57;5.22;;;15.10;99.90;;;;;;5062802;28;20528;-60
2023/08/16 06:39:44;;;;;;;10.70;5.15;;;15.00;99.90;;;;;;5066260;28;20071;-60
2023/08/16 06:42:09;;;;;;;8.20;5.53;;;15.20;99.90;;;;;;5056527;28;20170;-59
2023/08/16 06:44:36;;;;;;;8.48;4.70;;;15.00;99.90;;;;;;5060077;28;20418;-60
2023/08/16 06:47:02;;;;;;;6.43;3.33;;;14.80;99.90;;;;;;5061669;28;20506;-60
2023/08/16 06:49:27;;;;;;;9.80;5.03;;;15.60;99.90;;;;;;5077211;28;20045;-60
2023/08/16 06:51:53;;;;;;;11.40;5.00;;;15.70;99.90;;;;;;5068600;28;20033;-59
2023/08/16 06:54:18;;;;;;;8.23;5.55;;;16.20;99.90;;;;;;5057733;28;20041;-59
2023/08/16 06:56:44;;;;;;;8.13;4.88;;;15.80;99.90;;;;;;5053052;28;20036;-60
2023/08/16 06:59:10;;;;;;;11.30;6.80;;;15.60;99.90;;;;;;5060059;28;20029;-60
2023/08/16 07:01:36;;;;;;;13.15;5.50;;;15.60;99.90;;;;;;5060177;28;20185;-60
2023/08/16 07:04:02;;;;;;;12.07;6.38;;;;;;;;;;5070708;28;20081;-58
2023/08/16 07:06:31;;;;;;;10.88;5.95;;;16.60;99.90;;;;;;5062698;28;20044;-59
2023/08/16 07:08:58;;;;;;;10.73;4.32;;;16.60;99.90;;;;;;5057830;28;20098;-59
2023/08/16 07:11:24;;;;;;;15.50;6.03;;;16.60;99.90;;;;;;5056862;28;20500;-58
2023/08/16 07:13:51;;;;;;;9.40;5.82;;;;;;;;;;5067698;28;20041;-60
2023/08/16 07:16:17;;;;;;;11.73;7.32;;;16.00;99.90;;;;;;5059059;28;20482;-59
2023/08/16 07:18:43;;;;;;;13.00;5.63;;;15.50;99.90;;;;;;5060815;28;20033;-60
2023/08/16 07:21:09;;;;;;;7.75;4.20;;;16.10;99.90;;;;;;5063743;28;20041;-60
2023/08/16 07:23:35;;;;;;;7.70;3.97;;;15.70;99.90;;;;;;5064974;28;20375;-59
2023/08/16 07:26:02;;;;;;;8.93;5.03;;;15.80;99.90;;;;;;5068113;28;20041;-60
2023/08/16 07:28:28;;;;;;;8.57;4.82;;;16.70;99.90;;;;;;5061075;28;20120;-60
2023/08/16 07:30:55;;;;;;;6.72;4.10;;;;;;;;;;5069804;28;20116;-60
2023/08/16 07:33:21;;;;;;;11.55;4.47;;;15.90;99.90;;;;;;5064906;28;20052;-60
2023/08/16 07:35:50;;;;;;;6.55;3.30;;;16.40;99.90;;;;;;5067067;28;20422;-60
2023/08/16 07:38:16;;;;;;;9.82;5.35;;;16.40;99.90;;;;;;5070317;28;20089;-59
2023/08/16 07:40:48;;;;;;;6.43;3.58;;;16.60;99.90;;;;;;5071181;28;20033;-59
2023/08/16 07:43:15;;;;;;;5.53;3.30;;;16.60;99.90;;;;;;5064154;28;20047;-60
2023/08/16 07:45:41;;;;;;;7.93;3.55;;;16.90;99.90;;;;;;5069413;28;20040;-60
2023/08/16 07:48:06;;;;;;;6.72;4.03;;;16.50;99.90;;;;;;5067580;28;20036;-60
2023/08/16 07:50:32;;;;;;;6.90;3.92;;;17.00;1.00;;;;;;5067159;28;20040;-59
2023/08/16 07:52:57;;;;;;;6.43;2.70;;;17.10;16.50;;;;;;5065665;28;20122;-60
2023/08/16 07:55:29;;;;;;;7.95;4.18;;;16.90;1.00;;;;;;5064695;28;20032;-59
2023/08/16 07:57:54;;;;;;;7.03;3.45;;;16.80;1.00;;;;;;5064651;28;20040;-60
2023/08/16 08:00:20;;;;;;;9.73;5.28;;;16.90;1.00;;;;;;5063665;28;20044;-60
2023/08/16 08:02:46;;;;;;;8.77;5.10;;;17.10;1.00;;;;;;5065982;28;20037;-60
2023/08/16 08:05:11;;;;;;;7.90;4.10;;;17.20;27.40;;;;;;5066898;28;20470;-60
2023/08/16 08:07:37;;;;;;;8.68;3.75;;;18.10;42.10;;;;;;5065458;28;20744;-60
2023/08/16 08:10:03;;;;;;;9.27;3.80;;;17.90;7.40;;;;;;5068022;28;20055;-60
2023/08/16 08:12:30;;;;;;;7.00;2.92;;;18.70;1.00;;;;;;5060628;28;20037;-59
2023/08/16 08:14:57;;;;;;;9.00;3.03;;;17.70;1.00;;;;;;5076917;28;20044;-60
2023/08/16 08:17:23;;;;;;;9.63;3.40;;;17.70;1.00;;;;;;5066539;28;20040;-59
2023/08/16 08:19:49;;;;;;;8.35;2.67;;;17.80;99.90;;;;;;5058583;28;20501;-59
2023/08/16 08:22:14;;;;;;;7.68;3.33;;;18.70;99.90;;;;;;5046904;28;20066;-60
2023/08/16 08:24:40;;;;;;;8.23;3.40;;;18.80;99.90;;;;;;5058410;28;20094;-60
2023/08/16 08:27:06;;;;;;;9.13;3.90;;;18.00;99.90;;;;;;5060659;28;20573;-59
2023/08/16 08:29:31;;;;;;;6.65;3.13;;;18.90;99.90;;;;;;5066867;28;20606;-59
2023/08/16 08:31:57;;;;;;;7.18;3.40;;;18.30;99.90;;;;;;5067484;28;20057;-60
2023/08/16 08:34:24;;;;;;;6.10;2.80;;;18.70;99.90;;;;;;5058649;28;20330;-60
2023/08/16 08:36:49;;;;;;;8.07;3.10;;;19.40;99.90;;;;;;5066696;28;20066;-60
2023/08/16 08:39:19;;;;;;;5.75;2.67;;;18.80;99.90;;;;;;5062353;28;20032;-59
2023/08/16 08:41:48;;;;;;;6.93;2.45;;;18.30;99.90;;;;;;5057938;28;20040;-59
2023/08/16 08:44:18;;;;;;;5.72;2.60;;;18.60;99.90;;;;;;5058267;28;20493;-60
2023/08/16 08:46:46;;;;;;;7.15;2.90;;;19.30;99.90;;;;;;5061285;28;20040;-60
2023/08/16 08:49:14;;;;;;;7.13;2.85;;;19.10;99.90;;;;;;5065520;28;20063;-59
2023/08/16 08:51:41;;;;;;;5.95;2.30;;;18.70;99.90;;;;;;5063299;28;20207;-60
2023/08/16 08:54:07;;;;;;;8.48;3.25;;;19.20;75.70;;;;;;5058277;28;20395;-60
2023/08/16 08:56:34;;;;;;;7.15;2.80;;;18.90;84.50;;;;;;5055379;28;20033;-60
2023/08/16 08:59:01;;;;;;;5.72;2.90;;;18.90;88.50;;;;;;5059137;28;20509;-60
2023/08/16 09:01:27;;;;;;;6.82;3.45;;;18.90;90.20;;;;;;5064603;28;20048;-60
2023/08/16 09:03:56;;;;;;;6.22;2.80;;;19.10;64.20;;;;;;5066739;28;20047;-59
2023/08/16 09:06:22;;;;;;;6.18;2.75;;;19.20;32.60;;;;;;5059178;28;20652;-59
2023/08/16 09:08:48;;;;;;;8.82;2.78;;;19.40;1.00;;;;;;5056663;28;20064;-60
2023/08/16 09:11:14;;;;;;;5.13;2.75;;;19.40;1.00;;;;;;5061387;28;20116;-59
2023/08/16 09:13:41;;;;;;;6.45;2.90;;;19.20;99.90;;;;;;5067473;28;20040;-60
2023/08/16 09:16:07;;;;;;;6.05;2.80;;;19.40;99.90;;;;;;5066328;28;20066;-60
2023/08/16 09:18:32;;;;;;;7.45;2.58;;;19.90;99.90;;;;;;5054776;28;20040;-60
2023/08/16 09:20:59;;;;;;;6.00;2.40;;;19.40;99.90;;;;;;5062428;28;20122;-59
2023/08/16 09:23:26;;;;;;;7.97;2.95;;;19.50;99.90;;;;;;5057263;28;20135;-60
2023/08/16 09:25:51;;;;;;;5.90;2.60;;;20.00;99.90;;;;;;5065611;28;20116;-60
2023/08/16 09:28:18;;;;;;;6.40;2.50;;;19.50;99.90;;;;;;5059020;28;20111;-60
2023/08/16 09:30:44;;;;;;;6.68;2.92;;;19.60;99.90;;;;;;5058532;28;20024;-60
2023/08/16 09:33:14;;;;;;;5.30;2.38;;;20.20;99.90;;;;;;5057428;28;20402;-60
2023/08/16 09:35:49;;;;;;;7.78;2.60;;;19.90;99.90;;;;;;5056313;28;20060;-59
2023/08/16 09:38:18;;;;;;;6.82;2.53;;;19.90;99.90;;;;;;5066346;28;20036;-60
2023/08/16 09:40:48;;;;;;;5.97;2.30;;;20.30;99.90;;;;;;5062903;28;20481;-60
2023/08/16 09:43:13;;;;;;;6.72;2.33;;;19.80;99.90;;;;;;5055673;28;20068;-60
2023/08/16 09:45:40;;;;;;;5.47;2.15;;;19.30;99.90;;;;;;5060638;28;20551;-60
2023/08/16 09:48:09;;;;;;;5.03;1.85;;;19.80;99.90;;;;;;5064830;28;20601;-60
2023/08/16 09:50:35;;;;;;;4.70;1.65;;;19.80;99.90;;;;;;5063518;28;20121;-60
2023/08/16 09:53:05;;;;;;;4.43;1.80;;;20.10;99.90;;;;;;5054111;28;20048;-60
2023/08/16 09:55:32;;;;;;;5.20;1.65;;;20.10;99.90;;;;;;5056975;28;20494;-60
2023/08/16 09:58:00;;;;;;;6.03;2.20;;;20.50;99.90;;;;;;5062188;28;20047;-60
2023/08/16 10:00:30;;;;;;;4.88;1.73;;;19.60;99.90;;;;;;5055506;28;20128;-59
2023/08/16 10:02:56;;;;;;;4.47;1.63;;;20.60;61.30;;;;;;5062856;28;20120;-60
2023/08/16 10:05:24;;;;;;;4.93;1.65;;;19.70;50.40;;;;;;5066556;28;20421;-59
2023/08/16 10:07:50;;;;;;;3.92;1.65;;;19.80;1.00;;;;;;5057972;28;20037;-60
2023/08/16 10:10:17;;;;;;;6.85;1.67;;;;;;;;;;5084132;28;20039;-60
2023/08/16 10:12:46;;;;;;;3.78;1.60;;;20.20;1.00;;;;;;5054051;28;20148;-59
2023/08/16 10:15:12;;;;;;;6.68;1.90;;;20.10;1.00;;;;;;5065798;28;20039;-60
2023/08/16 10:17:40;;;;;;;3.85;1.55;;;21.20;14.60;;;;;;5054339;28;20409;-60
2023/08/16 10:20:13;;;;;;;3.88;1.40;;;20.50;1.00;;;;;;5061497;28;20037;-60
2023/08/16 10:22:42;;;;;;;5.07;1.90;;;20.70;1.00;;;;;;5061488;28;20391;-58
2023/08/16 10:25:13;;;;;;;5.55;1.70;;;20.90;1.00;;;;;;5068195;28;20168;-59
2023/08/16 10:27:45;;;;;;;6.00;1.70;;;21.80;1.00;;;;;;5063963;28;20127;-58
2023/08/16 10:30:24;;;;;;;5.40;1.85;;;21.80;1.00;;;;;;5061330;28;20029;-58
2023/08/16 10:33:24;;;;;;;4.78;2.13;;;21.80;1.00;;;;;;5064735;28;20486;-58
2023/08/16 10:35:51;;;;;;;4.45;1.70;;;22.50;1.00;;;;;;5053755;28;20040;-58
2023/08/16 10:38:19;;;;;;;5.03;1.70;;;22.70;1.00;;;;;;5071991;28;20044;-58
2023/08/16 10:40:58;;;;;;;4.40;1.50;;;22.80;1.00;;;;;;5069154;28;20397;-58
2023/08/16 10:43:33;;;;;;;5.18;1.88;;;22.80;1.00;;;;;;5066206;28;20123;-58
2023/08/16 10:45:59;;;;;;;4.75;1.75;;;23.10;1.00;;;;;;5070054;28;20090;-58
2023/08/16 10:48:25;;;;;;;4.35;1.77;;;23.40;1.00;;;;;;5071707;28;20052;-58
2023/08/16 10:50:57;;;;;;;5.68;2.15;;;24.00;1.00;;;;;;5070044;28;20097;-59
2023/08/16 10:53:27;;;;;;;5.40;1.92;;;23.40;1.00;;;;;;5065031;28;20048;-58
2023/08/16 10:55:55;;;;;;;5.68;1.70;;;23.30;99.90;;;;;;5063962;28;20043;-59
2023/08/16 10:58:23;;;;;;;6.68;2.03;;;23.30;99.90;;;;;;5059671;28;20045;-58
2023/08/16 11:00:56;;;;;;;8.10;2.03;;;23.80;99.90;;;;;;5062831;28;20048;-58
2023/08/16 11:03:29;;;;;;;3.95;1.60;;;24.50;99.90;;;;;;5056695;28;20067;-58
2023/08/16 11:05:57;;;;;;;5.40;1.75;;;24.60;99.90;;;;;;5068608;28;20079;-58
2023/08/16 11:08:24;;;;;;;4.80;1.48;;;24.00;99.90;;;;;;5064928;28;20463;-58
2023/08/16 11:10:50;;;;;;;4.70;1.70;;;23.50;99.90;;;;;;5070587;28;20036;-59
2023/08/16 11:13:15;;;;;;;4.20;1.40;;;23.60;99.90;;;;;;5062604;28;20033;-58
2023/08/16 11:15:42;;;;;;;4.28;1.45;;;23.70;99.90;;;;;;5071729;28;20028;-59
2023/08/16 11:18:08;;;;;;;3.80;1.40;;;23.70;99.90;;;;;;5056675;28;20128;-58
2023/08/16 11:20:34;;;;;;;5.50;1.55;;;23.40;99.90;;;;;;5070621;28;20037;-58
2023/08/16 11:23:00;;;;;;;5.72;1.70;;;24.10;99.90;;;;;;5070655;28;20119;-59
2023/08/16 11:25:36;;;;;;;5.10;1.40;;;23.10;99.90;;;;;;5062537;28;20116;-59
2023/08/16 11:28:04;;;;;;;4.07;1.52;;;23.30;99.90;;;;;;5071535;28;20040;-58
2023/08/16 11:30:31;;;;;;;4.53;1.83;;;23.50;99.90;;;;;;5069593;28;20482;-59
2023/08/16 11:32:58;;;;;;;8.30;2.10;;;23.10;99.90;;;;;;5070154;28;20055;-58
2023/08/16 11:35:24;;;;;;;4.65;1.50;;;23.30;99.90;;;;;;5067638;28;20464;-58
2023/08/16 11:37:50;;;;;;;5.50;1.65;;;23.10;99.90;;;;;;5062552;28;20028;-59
2023/08/16 11:40:21;;;;;;;4.97;1.80;;;23.00;99.90;;;;;;5064905;28;20033;-58
2023/08/16 11:42:48;;;;;;;4.05;1.30;;;23.20;99.90;;;;;;5070471;28;20082;-59
2023/08/16 11:45:23;;;;;;;5.13;1.60;;;23.00;99.90;;;;;;5058614;28;20122;-59
2023/08/16 11:47:50;;;;;;;6.70;1.48;;;23.40;99.90;;;;;;5066396;28;20033;-59
2023/08/16 11:50:16;;;;;;;5.05;1.67;;;23.10;99.90;;;;;;5070386;28;20051;-59
2023/08/16 11:52:41;;;;;;;3.70;1.30;;;23.10;99.90;;;;;;5071109;28;20041;-58
2023/08/16 11:55:09;;;;;;;3.92;1.33;;;24.50;99.90;;;;;;5060030;28;20059;-59
2023/08/16 11:57:44;;;;;;;3.45;1.30;;;23.80;99.90;;;;;;5067061;28;20037;-59
2023/08/16 12:00:14;;;;;;;5.60;1.23;;;23.70;99.00;;;;;;5066144;28;20043;-58
2023/08/16 12:02:44;;;;;;;4.40;1.50;;;24.90;69.20;;;;;;5070494;28;20112;-58
2023/08/16 12:05:11;;;;;;;5.65;1.70;;;23.80;84.30;;;;;;5064923;28;20055;-59
2023/08/16 12:07:44;;;;;;;3.75;1.60;;;23.80;50.50;;;;;;5058048;28;20041;-59
2023/08/16 12:10:20;;;;;;;4.20;1.40;;;24.20;47.40;;;;;;5059751;28;20051;-58
2023/08/16 12:12:45;;;;;;;4.50;1.50;;;24.00;25.30;;;;;;5058685;28;20451;-58
2023/08/16 12:15:11;;;;;;;5.78;1.50;;;25.10;22.40;;;;;;5060283;28;20132;-58
2023/08/16 12:17:38;;;;;;;4.95;1.77;;;25.20;13.40;;;;;;5056889;28;20079;-59
2023/08/16 12:20:05;;;;;;;5.35;1.70;;;25.20;1.00;;;;;;5052748;28;20049;-59
2023/08/16 12:22:30;;;;;;;4.35;1.40;;;25.20;1.00;;;;;;5070808;28;20029;-59
2023/08/16 12:24:56;;;;;;;3.65;1.40;;;25.60;1.00;;;;;;5067288;28;20494;-59
2023/08/16 12:27:22;;;;;;;4.38;1.38;;;24.90;1.00;;;;;;5063510;28;20096;-57
2023/08/16 12:29:48;;;;;;;4.05;1.25;;;25.50;1.00;;;;;;5051859;28;20482;-58
2023/08/16 12:32:13;;;;;;;5.88;1.50;;;24.80;1.00;;;;;;5056934;28;20075;-57
2023/08/16 12:34:39;;;;;;;4.63;1.33;;;26.50;1.00;;;;;;5072893;28;20040;-58
2023/08/16 12:37:07;;;;;;;3.78;1.38;;;29.60;1.00;;;;;;5067432;28;20328;-59
2023/08/16 12:39:32;;;;;;;4.45;1.45;;;31.50;1.00;;;;;;5058272;28;20044;-59
2023/08/16 12:41:58;;;;;;;5.32;1.40;;;32.30;1.00;;;;;;5063579;28;20033;-59
2023/08/16 12:44:24;;;;;;;4.28;1.40;;;32.50;1.00;;;;;;5063366;28;20047;-58
2023/08/16 12:46:50;;;;;;;4.18;1.30;;;32.60;1.00;;;;;;5057949;28;20080;-59
2023/08/16 12:49:15;;;;;;;3.92;1.40;;;33.60;1.00;;;;;;5057528;28;20075;-57
2023/08/16 12:51:43;;;;;;;3.90;1.50;;;35.40;99.90;;;;;;5061746;28;20469;-59
2023/08/16 12:54:09;;;;;;;8.27;3.50;;;37.10;99.90;;;;;;5065292;28;20521;-59
2023/08/16 12:56:34;;;;;;;4.80;1.40;;;38.80;99.90;;;;;;5065285;28;20088;-59